Flight Track Log - Related Links

Times and Time Zones

All times are in EDT time to prevent confusion due to time zone crossing. See the SWA920 flight status page for this flight to view local times or setup timezone preferences in your user account.

Time Position Orientation Groundspeed Altitude Reporting Facility
EDT Latitude Longitude Course Direction KTS MPH feet Rate Location/Type
Thu 10:30:52 PM 39.1833 -76.7333 108° East 196 226 2,300  Level Potomac TRACON
Thu 10:31:52 PM 39.1333 -76.7333 180° South 229 264 5,200 2,300 Climbing Potomac TRACON
Thu 10:32:52 PM 39.1000 -76.6667 123° Southeast 287 330 6,900 1,700 Climbing Potomac TRACON
Thu 10:33:52 PM 39.1167 -76.5667 78° East 297 342 8,600 2,653 Climbing Potomac TRACON
Thu 10:36:00 PM 39.1656 -76.5959 108° East  Level FlightAware Approximate
Thu 10:36:02 PM 39.0736 -76.3322 103° East 315 362 15,300  Level Washington Center
Thu 10:37:02 PM 39.0283 -76.2303 120° Southeast 319 367 17,000 1,750 Climbing Washington Center
Thu 10:38:02 PM 39.0728 -76.1156 63° Northeast 305 351 18,800 1,700 Climbing Washington Center
Thu 10:39:02 PM 39.1356 -75.9931 57° Northeast 347 399 20,400 600 Climbing Washington Center
Thu 10:40:02 PM 39.2006 -75.8700 56° Northeast 378 435 20,000 -200 Descending Washington Center
Thu 10:41:02 PM 39.2800 -75.7658 45° Northeast 393 452 20,000 250 Level Washington Center
Thu 10:42:02 PM 39.3614 -75.6614 45° Northeast 398 458 20,500 1,500 Climbing Washington Center
Thu 10:43:02 PM 39.4469 -75.5539 44° Northeast 410 472 23,000 2,450 Climbing Washington Center
Thu 10:44:02 PM 39.5322 -75.4408 46° Northeast 423 487 25,400 2,200 Climbing Washington Center
Thu 10:45:02 PM 39.6258 -75.3194 45° Northeast 441 507 27,400 2,100 Climbing Washington Center
Thu 10:46:02 PM 39.7192 -75.1922 46° Northeast 465 535 29,600 2,400 Climbing Washington Center
Thu 10:46:52 PM 39.7864 -75.0906 49° Northeast 479 551 31,800 1,855 Climbing New York Center
Thu 10:47:52 PM 39.8786 -74.9583 48° Northeast 485 558 33,000 595 Climbing New York Center
Thu 10:48:53 PM 39.9728 -74.8283 47° Northeast 485 558 33,000  Level New York Center
Thu 10:49:51 PM 40.0717 -74.6850 48° Northeast 485 558 33,000  Level New York Center
Thu 10:50:52 PM 40.1614 -74.5542 48° Northeast 485 558 33,000  Level New York Center
Thu 10:51:53 PM 40.2589 -74.4317 44° Northeast 479 551 33,000  Level New York Center
Thu 10:52:53 PM 40.3667 -74.3203 38° Northeast 479 551 33,000 -908 Level New York Center
Thu 10:53:52 PM 40.4700 -74.2031 41° Northeast 484 557 31,200 -1,200 Descending New York Center
Thu 10:56:28 PM 40.6619 -73.8328 56° Northeast 490 564 28,700 -1,056 Descending Boston Center
Thu 10:57:28 PM 40.7367 -73.6836 56° Northeast 490 564 27,400 -1,567 Descending Boston Center
Thu 10:59:28 PM 40.8833 -73.4036 55° Northeast 465 535 24,000 -1,133 Descending Boston Center
Thu 11:00:28 PM 40.9656 -73.2839 48° Northeast 451 519 24,000 -400 Level Boston Center
Thu 11:01:28 PM 41.0456 -73.1639 49° Northeast 439 505 23,200 -500 Descending Boston Center
Thu 11:02:28 PM 41.1275 -73.0408 48° Northeast 434 499 23,000 -100 Descending Boston Center
Thu 11:03:28 PM 41.2072 -72.9203 49° Northeast 434 499 23,000  Level Boston Center
Thu 11:04:28 PM 41.2786 -72.7633 59° Northeast 445 512 23,000  Level Boston Center
Thu 11:05:28 PM 41.3292 -72.6169 65° Northeast 445 512 23,000  Level Boston Center
Thu 11:06:28 PM 41.3833 -72.4678 64° Northeast 440 506 23,000  Level Boston Center
Thu 11:07:28 PM 41.4375 -72.3211 64° Northeast 440 506 23,000 -1,233 Level Boston Center
Thu 11:09:28 PM 41.5431 -72.0381 63° Northeast 446 513 19,300 -2,200 Descending Boston Center
Thu 11:11:00 PM 41.6028 -71.8222 71° East  Level FlightAware Approximate
Thu 11:12:28 PM 41.6761 -71.5897 71° East 412 474 12,000  Level Boston Center
Thu 11:13:28 PM 41.7128 -71.4722 67° East 386 444 11,000 -500 Descending Boston Center
Thu 11:14:28 PM 41.7636 -71.3547 60° Northeast 343 395 11,000 -233 Level Boston Center
Thu 11:16:28 PM 41.8958 -71.2325 35° Northeast 279 321 10,300 -733 Descending Boston Center
Thu 11:17:28 PM 41.9581 -71.2006 21° North 274 315 8,800 -1,100 Descending Boston Center
Thu 11:19:28 PM 42.0867 -71.1392 20° North 235 270 7,000 -1,067 Descending Boston Center
Thu 11:20:28 PM 42.1467 -71.1072 22° Northeast 211 243 5,600 -1,300 Descending Boston Center
Thu 11:21:28 PM 42.1922 -71.0867 18° North 198 228 4,400 -1,538 Descending Boston Center
Thu 11:22:25 PM 42.2500 -71.0667 14° North 188 216 2,600 -1,436 Descending KA90
Thu 11:23:25 PM 42.3000 -71.0333 26° Northeast 153 176 1,600 -950 Descending KA90
Thu 11:24:25 PM 42.3333 -71.0167 20° North 136 157 700 3,082 Descending KA90
Thu 11:26:28 PM 42.3975 -70.9922 16° North 144 166 11,000 5,024 Climbing Boston Center
Thu 11:28:00 PM 42.3630 -71.0064 200° South  Level Estimated
Thu 11:35:00 PM 42.3630 -71.0064 200° South  Level Estimated
Thu 11:36:00 PM 42.3630 -71.0064 200° South  Level Estimated
Thu 11:37:00 PM 42.3630 -71.0064 200° South  Level Estimated
Thu 11:38:00 PM 42.3630 -71.0064 200° South  Level Estimated
Thu 11:39:00 PM 42.3630 -71.0064 200° South  Level Estimated
Thu 11:40:00 PM 42.3630 -71.0064 200° South  Level Estimated
Thu 11:41:00 PM 42.3630 -71.0064 200° South  Level Estimated
Thu 11:42:00 PM 42.3630 -71.0064 200° South  Level Estimated
Thu 11:43:00 PM 42.3630 -71.0064 200° South  Level Estimated

Login

Don't have an account? Register now (free) for customized features, flight alerts, and more!